Terminal Aerodrome Forecast
Issued by NWS Central Illinois

Home | Current Version | Previous Version | Text Only | Print | Product List | Glossary On
Versions: 1 2 3 4 5 6 7 8 9 10 11 12 13 14 15 16 17
000
FTUS43 KILX 311732
TAFSPI
TAF
KSPI 311732Z 3118/0118 35007KT P6SM SCT025 BKN150
      TEMPO 3118/3121 BKN025
     FM010100 01007KT P6SM SCT200
     FM011500 04008KT P6SM SKC=

USA.gov is the U.S. government's official web portal to all federal, state and local government web resources and services.